Time;durP1;ratioP1;P1;durP2;ratioP2;P2;SDS_P1;SDS_P2;PMS_P1;PMS_P2;Temp;Humidity;BMP_temperature;BMP_pressure;BME280_temperature;BME280_humidity;BME280_pressure;Samples;Min_cycle;Max_cycle;Signal;HPM_P1;HPM_P2
2023/12/21 00:01:51;;;;;;;1.13;1.03;;;8.30;40.60;;;;;;10430107;28;20948;-76
2023/12/21 00:06:54;;;;;;;1.50;1.00;;;8.30;40.80;;;;;;10426145;28;20239;-76
2023/12/21 00:11:58;;;;;;;1.70;1.00;;;8.40;41.00;;;;;;10430305;28;20320;-78
2023/12/21 00:17:02;;;;;;;1.27;1.00;;;8.40;40.60;;;;;;10429362;28;20845;-78
2023/12/21 00:22:05;;;;;;;2.83;1.10;;;8.40;41.50;;;;;;10429716;28;20607;-76
2023/12/21 00:27:10;;;;;;;1.40;0.90;;;8.40;40.80;;;;;;10428189;28;20241;-76
2023/12/21 00:32:13;;;;;;;1.50;0.90;;;8.40;40.60;;;;;;10425043;28;20224;-78
2023/12/21 00:37:16;;;;;;;0.93;0.87;;;8.40;40.60;;;;;;10427494;28;20244;-76
2023/12/21 00:42:22;;;;;;;1.87;1.00;;;8.40;40.80;;;;;;10427062;28;20235;-76
2023/12/21 00:47:25;;;;;;;1.13;0.93;;;8.30;40.70;;;;;;10421141;28;20715;-78
2023/12/21 00:52:28;;;;;;;1.53;1.00;;;8.40;40.80;;;;;;10425943;28;20241;-76
2023/12/21 00:57:33;;;;;;;1.30;0.97;;;8.30;40.60;;;;;;10424320;28;20233;-76
2023/12/21 01:02:38;;;;;;;1.27;0.90;;;8.30;40.50;;;;;;10426245;28;20670;-76
2023/12/21 01:07:41;;;;;;;1.00;0.90;;;8.40;40.70;;;;;;10418441;28;20233;-76
2023/12/21 01:12:46;;;;;;;2.03;1.07;;;8.40;40.70;;;;;;10425474;28;20623;-76
2023/12/21 01:17:49;;;;;;;1.43;1.00;;;8.40;40.60;;;;;;10422049;28;20225;-76
2023/12/21 01:22:53;;;;;;;1.97;1.07;;;8.40;40.50;;;;;;10417674;28;20233;-76
2023/12/21 01:27:57;;;;;;;1.73;1.07;;;8.40;40.50;;;;;;10421511;28;20234;-76
2023/12/21 01:33:01;;;;;;;0.80;0.80;;;8.40;40.40;;;;;;10427772;28;20241;-78
2023/12/21 01:38:05;;;;;;;1.23;1.00;;;8.40;40.50;;;;;;10432287;28;20794;-76
2023/12/21 01:43:10;;;;;;;1.70;1.07;;;8.40;40.60;;;;;;10432919;28;20276;-77
2023/12/21 01:48:14;;;;;;;1.53;0.97;;;8.40;40.30;;;;;;10423917;28;20348;-76
2023/12/21 01:53:17;;;;;;;1.53;1.00;;;8.40;40.50;;;;;;10436608;28;20576;-76
2023/12/21 01:58:22;;;;;;;1.87;1.00;;;8.40;40.30;;;;;;10431935;28;20312;-76
2023/12/21 02:03:27;;;;;;;1.00;0.93;;;8.40;40.50;;;;;;10432326;28;20615;-76
2023/12/21 02:08:30;;;;;;;1.33;0.80;;;8.40;40.70;;;;;;10427680;28;20588;-78
2023/12/21 02:13:34;;;;;;;1.97;1.10;;;8.40;40.80;;;;;;10435706;28;20233;-76
2023/12/21 02:18:38;;;;;;;1.60;0.90;;;8.40;40.90;;;;;;10425484;28;20749;-76
2023/12/21 02:23:42;;;;;;;1.27;1.10;;;8.40;41.10;;;;;;10433515;28;20259;-76
2023/12/21 02:28:47;;;;;;;3.03;0.83;;;8.40;41.10;;;;;;10425359;28;20225;-78
2023/12/21 02:33:50;;;;;;;1.77;1.10;;;8.30;41.10;;;;;;10431114;28;20305;-76
2023/12/21 02:38:54;;;;;;;1.20;0.90;;;8.30;41.20;;;;;;10433164;28;20228;-76
2023/12/21 02:43:58;;;;;;;1.47;1.00;;;8.30;41.30;;;;;;10435515;28;20236;-76
2023/12/21 02:49:01;;;;;;;0.80;0.80;;;8.30;41.30;;;;;;10432267;28;20300;-76
2023/12/21 02:54:04;;;;;;;0.97;0.80;;;8.30;41.50;;;;;;10428791;28;20609;-76
2023/12/21 02:59:09;;;;;;;1.17;1.07;;;8.30;41.40;;;;;;10434366;28;20311;-76
2023/12/21 03:04:12;;;;;;;1.43;0.97;;;8.30;41.60;;;;;;10439196;28;20233;-76
2023/12/21 03:09:16;;;;;;;1.43;0.90;;;8.30;41.60;;;;;;10432951;28;20233;-76
2023/12/21 03:14:22;;;;;;;1.97;0.87;;;8.30;41.60;;;;;;10432481;28;20240;-76
2023/12/21 03:19:25;;;;;;;0.90;0.90;;;8.30;41.70;;;;;;10429378;28;20248;-76
2023/12/21 03:24:28;;;;;;;1.57;1.13;;;8.30;41.80;;;;;;10427896;28;20307;-76
2023/12/21 03:29:33;;;;;;;1.30;1.20;;;8.30;42.00;;;;;;10435628;28;20233;-76
2023/12/21 03:34:36;;;;;;;2.20;1.27;;;8.30;42.00;;;;;;10424850;28;20309;-76
2023/12/21 03:39:39;;;;;;;1.60;1.50;;;8.30;41.90;;;;;;10433622;28;20228;-76
2023/12/21 03:44:44;;;;;;;1.60;1.50;;;8.30;41.90;;;;;;10427311;28;20312;-76
2023/12/21 03:49:47;;;;;;;2.63;1.90;;;8.30;41.90;;;;;;10431041;28;21034;-76
2023/12/21 03:54:51;;;;;;;3.10;2.67;;;8.30;42.00;;;;;;10429740;28;20217;-76
2023/12/21 03:59:55;;;;;;;4.33;3.17;;;8.30;42.00;;;;;;10433593;28;20784;-76
2023/12/21 04:04:58;;;;;;;1.90;1.40;;;8.30;42.00;;;;;;10434509;28;20996;-76
2023/12/21 04:10:02;;;;;;;2.13;1.67;;;8.30;41.90;;;;;;10435564;28;20225;-76
2023/12/21 04:15:08;;;;;;;1.47;1.37;;;8.30;41.90;;;;;;10429956;28;20646;-76
2023/12/21 04:20:12;;;;;;;1.13;1.00;;;8.30;42.00;;;;;;10432148;28;20711;-77
2023/12/21 04:25:15;;;;;;;1.00;1.00;;;8.30;42.00;;;;;;10431591;28;20235;-76
2023/12/21 04:30:20;;;;;;;1.00;1.00;;;8.40;42.00;;;;;;10433945;28;20237;-76
2023/12/21 04:35:23;;;;;;;1.20;1.00;;;8.40;42.00;;;;;;10428570;28;20299;-76
2023/12/21 04:40:27;;;;;;;0.93;0.93;;;8.40;42.10;;;;;;10430296;28;20316;-76
2023/12/21 04:45:31;;;;;;;1.27;1.10;;;8.40;42.00;;;;;;10425571;28;20707;-76
2023/12/21 04:50:34;;;;;;;0.87;0.83;;;8.40;42.10;;;;;;10424356;28;20735;-76
2023/12/21 04:55:37;;;;;;;1.70;0.90;;;8.40;42.10;;;;;;10430201;28;20320;-76
2023/12/21 05:00:47;;;;;;;1.20;0.90;;;8.40;42.30;;;;;;10427602;28;20229;-76
2023/12/21 05:05:50;;;;;;;1.10;1.00;;;8.40;42.20;;;;;;10430352;28;20225;-76
2023/12/21 05:10:53;;;;;;;1.10;0.90;;;8.40;42.30;;;;;;10430641;28;20241;-76
2023/12/21 05:15:58;;;;;;;1.30;1.20;;;8.40;42.50;;;;;;10438272;28;20263;-76
2023/12/21 05:21:01;;;;;;;0.80;0.80;;;8.40;42.50;;;;;;10434361;28;20260;-76
2023/12/21 05:26:11;;;;;;;1.07;0.97;;;8.40;42.50;;;;;;10437762;28;20256;-76
2023/12/21 05:31:23;;;;;;;2.13;1.90;;;8.40;42.70;;;;;;10427727;28;20736;-76
2023/12/21 05:36:26;;;;;;;1.23;1.13;;;8.50;42.70;;;;;;10435535;28;20235;-76
2023/12/21 05:41:30;;;;;;;1.93;1.80;;;8.50;42.60;;;;;;10441162;28;20232;-76
2023/12/21 05:46:34;;;;;;;1.00;1.00;;;8.60;42.70;;;;;;10429874;28;20237;-76
2023/12/21 05:51:38;;;;;;;0.80;0.80;;;8.60;42.60;;;;;;10428447;28;20228;-74
2023/12/21 05:56:42;;;;;;;0.80;0.80;;;8.60;42.60;;;;;;10429896;28;20271;-75
2023/12/21 06:01:46;;;;;;;1.30;0.90;;;8.60;42.60;;;;;;10420616;28;20603;-76
2023/12/21 06:06:50;;;;;;;0.80;0.80;;;8.70;42.60;;;;;;10431010;28;20236;-74
2023/12/21 06:11:54;;;;;;;1.50;1.30;;;8.70;42.60;;;;;;10436141;28;20226;-74
2023/12/21 06:16:59;;;;;;;1.60;1.30;;;8.70;42.50;;;;;;10430025;28;20233;-73
2023/12/21 06:22:02;;;;;;;2.80;2.00;;;8.70;42.50;;;;;;10427178;28;20229;-74
2023/12/21 06:27:05;;;;;;;4.53;3.03;;;8.80;42.60;;;;;;10440921;28;20233;-75
2023/12/21 06:32:10;;;;;;;1.50;1.40;;;8.80;42.40;;;;;;10446695;28;20320;-75
2023/12/21 06:37:13;;;;;;;1.60;1.10;;;8.90;42.50;;;;;;10450077;28;20233;-75
2023/12/21 06:42:16;;;;;;;0.97;0.97;;;8.90;42.50;;;;;;10450053;28;20252;-77
2023/12/21 06:47:22;;;;;;;1.13;1.03;;;8.90;42.70;;;;;;10450090;28;20233;-74
2023/12/21 06:52:26;;;;;;;1.07;0.90;;;9.00;42.50;;;;;;10449731;28;20282;-75
2023/12/21 06:57:31;;;;;;;1.00;0.90;;;9.00;42.50;;;;;;10449590;28;20237;-77
2023/12/21 07:02:35;;;;;;;1.90;1.50;;;9.00;42.40;;;;;;10449524;28;20259;-77
2023/12/21 07:07:38;;;;;;;1.50;1.40;;;9.10;42.40;;;;;;10449907;28;20483;-76
2023/12/21 07:12:41;;;;;;;1.40;1.20;;;9.10;42.50;;;;;;10449184;28;20268;-78
2023/12/21 07:17:46;;;;;;;1.10;1.00;;;9.10;42.30;;;;;;10450570;28;20244;-77
2023/12/21 07:22:50;;;;;;;1.00;1.00;;;9.20;42.30;;;;;;10449749;28;20237;-78
2023/12/21 07:27:53;;;;;;;1.00;1.00;;;9.20;42.30;;;;;;10450225;28;20276;-77
2023/12/21 07:32:58;;;;;;;0.97;0.97;;;9.20;42.20;;;;;;10450442;28;20229;-77
2023/12/21 07:38:02;;;;;;;1.20;1.10;;;9.30;42.10;;;;;;10443561;28;20656;-77
2023/12/21 07:43:05;;;;;;;1.00;1.00;;;9.30;42.20;;;;;;10450749;28;20256;-77
2023/12/21 07:48:09;;;;;;;1.03;1.03;;;9.40;42.20;;;;;;10451776;28;20228;-77
2023/12/21 07:53:13;;;;;;;0.83;0.83;;;9.40;41.90;;;;;;10433882;28;20279;-77
2023/12/21 07:58:16;;;;;;;0.80;0.80;;;9.50;42.70;;;;;;10437832;28;20241;-76
2023/12/21 08:03:20;;;;;;;0.60;0.60;;;9.50;42.00;;;;;;10449307;28;20240;-77
2023/12/21 08:08:24;;;;;;;0.60;0.60;;;9.60;41.80;;;;;;10447257;28;20237;-77
2023/12/21 08:13:27;;;;;;;0.90;0.90;;;9.70;41.80;;;;;;10442913;28;20316;-73
2023/12/21 08:18:32;;;;;;;0.87;0.87;;;9.70;41.70;;;;;;10433365;28;20229;-77
2023/12/21 08:23:35;;;;;;;1.07;0.90;;;9.80;41.50;;;;;;10437424;28;20228;-77
2023/12/21 08:28:39;;;;;;;1.67;1.00;;;9.80;41.50;;;;;;10437029;28;20236;-75
2023/12/21 08:33:44;;;;;;;0.70;0.70;;;9.90;41.50;;;;;;10432601;28;20228;-75
2023/12/21 08:38:48;;;;;;;0.70;0.70;;;9.90;41.10;;;;;;10433199;28;20236;-75
2023/12/21 08:43:51;;;;;;;0.97;0.90;;;10.00;40.30;;;;;;10429134;28;20340;-75
2023/12/21 08:48:56;;;;;;;1.00;0.97;;;10.00;40.20;;;;;;10428221;28;20243;-75
2023/12/21 08:53:59;;;;;;;0.97;0.97;;;10.00;39.90;;;;;;10428991;28;20231;-75
2023/12/21 08:59:02;;;;;;;1.00;0.90;;;10.10;40.10;;;;;;10428391;28;20241;-73
2023/12/21 09:04:07;;;;;;;0.77;0.70;;;10.10;40.00;;;;;;10429209;28;20239;-75
2023/12/21 09:09:13;;;;;;;0.97;0.70;;;10.20;40.10;;;;;;10444266;28;20282;-75
2023/12/21 09:14:16;;;;;;;0.80;0.80;;;10.20;40.10;;;;;;10443350;28;20695;-75
2023/12/21 09:19:21;;;;;;;0.80;0.80;;;10.20;40.10;;;;;;10443653;28;20256;-75
2023/12/21 09:24:24;;;;;;;0.80;0.80;;;10.20;40.10;;;;;;10443608;28;20316;-75
2023/12/21 09:29:27;;;;;;;0.80;0.80;;;10.30;40.20;;;;;;10439627;28;20244;-75
2023/12/21 09:34:32;;;;;;;0.83;0.83;;;10.30;40.20;;;;;;10443383;28;20239;-75
2023/12/21 09:39:35;;;;;;;0.90;0.90;;;10.30;40.20;;;;;;10435057;28;20239;-74
2023/12/21 09:44:38;;;;;;;1.00;1.00;;;10.40;40.30;;;;;;10433395;28;20313;-74
2023/12/21 09:49:45;;;;;;;0.60;0.60;;;10.40;40.30;;;;;;10444322;28;20937;-74
2023/12/21 09:54:51;;;;;;;1.20;1.10;;;10.40;40.30;;;;;;10430058;28;20241;-74
2023/12/21 09:59:56;;;;;;;0.90;0.80;;;10.40;41.00;;;;;;10448912;28;20274;-74
2023/12/21 10:05:03;;;;;;;0.90;0.90;;;10.40;40.30;;;;;;10449226;28;20655;-74
2023/12/21 10:10:07;;;;;;;0.90;0.90;;;10.50;40.40;;;;;;10444536;28;20291;-75
2023/12/21 10:15:12;;;;;;;0.70;0.70;;;10.50;40.40;;;;;;10446440;28;20233;-74
2023/12/21 10:20:16;;;;;;;0.80;0.80;;;10.50;40.40;;;;;;10446836;28;20662;-76
2023/12/21 10:25:21;;;;;;;0.80;0.80;;;10.60;40.50;;;;;;10450259;28;20711;-76
2023/12/21 10:30:25;;;;;;;0.70;0.70;;;10.60;40.50;;;;;;10451938;28;20294;-76
2023/12/21 10:35:30;;;;;;;0.77;0.70;;;10.60;40.50;;;;;;10451840;28;20308;-76
2023/12/21 10:40:34;;;;;;;0.80;0.80;;;10.60;40.50;;;;;;10451309;28;20224;-76
2023/12/21 10:45:37;;;;;;;0.80;0.67;;;10.70;40.50;;;;;;10446248;28;20321;-76
2023/12/21 10:50:43;;;;;;;1.10;0.90;;;10.70;40.50;;;;;;10444867;28;20221;-75
2023/12/21 10:55:49;;;;;;;1.73;0.80;;;10.80;40.70;;;;;;10449130;28;20769;-76
2023/12/21 11:00:55;;;;;;;0.60;0.60;;;10.80;40.60;;;;;;10441210;28;20291;-75
2023/12/21 11:06:02;;;;;;;0.87;0.87;;;10.80;40.60;;;;;;10444164;28;20225;-75
2023/12/21 11:11:06;;;;;;;0.80;0.80;;;10.90;40.70;;;;;;10440946;28;20229;-78
2023/12/21 11:16:12;;;;;;;0.60;0.60;;;10.90;40.70;;;;;;10442142;28;20244;-79
2023/12/21 11:21:18;;;;;;;0.70;0.60;;;11.00;40.80;;;;;;10442762;28;20725;-78
2023/12/21 11:26:27;;;;;;;0.67;0.67;;;11.00;40.50;;;;;;10436579;28;20248;-74
2023/12/21 11:31:37;;;;;;;0.80;0.80;;;11.00;40.60;;;;;;10437255;28;20311;-74
2023/12/21 11:36:42;;;;;;;0.70;0.70;;;11.00;40.40;;;;;;10438300;28;20244;-74
2023/12/21 11:41:57;;;;;;;0.70;0.70;;;11.00;40.30;;;;;;10433418;28;20232;-74
2023/12/21 11:47:00;;;;;;;0.90;0.70;;;11.10;40.00;;;;;;10428053;28;20311;-74
2023/12/21 11:52:06;;;;;;;0.73;0.73;;;11.20;40.50;;;;;;10435980;28;20299;-74
2023/12/21 11:57:14;;;;;;;0.50;0.50;;;11.20;40.20;;;;;;10442148;28;20323;-75
2023/12/21 12:02:17;;;;;;;1.73;1.10;;;11.20;40.10;;;;;;10436130;28;20292;-73
2023/12/21 12:07:22;;;;;;;0.77;0.70;;;11.30;40.40;;;;;;10443020;28;20246;-75
2023/12/21 12:12:26;;;;;;;1.50;1.20;;;11.30;40.10;;;;;;10444548;28;20581;-75
2023/12/21 12:17:29;;;;;;;1.10;1.00;;;11.30;39.90;;;;;;10442490;28;20738;-75
2023/12/21 12:22:34;;;;;;;0.80;0.80;;;11.40;40.20;;;;;;10444143;28;20231;-75
2023/12/21 12:27:37;;;;;;;0.60;0.60;;;11.40;40.10;;;;;;10445815;28;20241;-75
2023/12/21 12:32:41;;;;;;;0.80;0.80;;;11.40;40.10;;;;;;10440552;28;20644;-75
2023/12/21 12:37:48;;;;;;;0.70;0.70;;;11.50;40.00;;;;;;10418999;28;20279;-74
2023/12/21 12:42:52;;;;;;;1.60;0.83;;;11.50;39.70;;;;;;10446314;28;20631;-75
2023/12/21 12:47:55;;;;;;;0.93;0.80;;;11.60;39.70;;;;;;10445736;28;20225;-75
2023/12/21 12:53:03;;;;;;;0.93;0.90;;;11.60;39.80;;;;;;10445928;28;20592;-74
2023/12/21 12:58:06;;;;;;;0.60;0.60;;;11.60;39.30;;;;;;10424597;28;20232;-75
2023/12/21 13:03:10;;;;;;;0.80;0.80;;;11.60;39.90;;;;;;10411107;28;20225;-75
2023/12/21 13:08:16;;;;;;;0.90;0.90;;;11.60;40.00;;;;;;10410921;28;20229;-74
2023/12/21 13:13:19;;;;;;;1.00;1.00;;;11.50;39.80;;;;;;10410185;28;20251;-75
2023/12/21 13:18:22;;;;;;;1.33;1.23;;;11.50;40.00;;;;;;10415737;28;20247;-74
2023/12/21 13:23:27;;;;;;;1.80;1.30;;;11.50;40.00;;;;;;10410209;28;20240;-73
2023/12/21 13:28:30;;;;;;;1.03;0.93;;;11.50;40.00;;;;;;10411132;28;20340;-75
2023/12/21 13:33:33;;;;;;;1.47;0.90;;;11.50;40.20;;;;;;10419665;28;20248;-74
2023/12/21 13:38:38;;;;;;;1.07;1.07;;;11.50;40.50;;;;;;10425775;28;20233;-74
2023/12/21 13:43:44;;;;;;;1.23;1.13;;;11.40;41.20;;;;;;10425368;28;20961;-74
2023/12/21 13:48:48;;;;;;;1.30;1.20;;;11.30;41.10;;;;;;10430939;28;20224;-74
2023/12/21 13:53:53;;;;;;;1.13;1.00;;;11.20;41.00;;;;;;10428031;28;20253;-75
2023/12/21 13:58:58;;;;;;;1.13;1.10;;;11.10;41.40;;;;;;10430827;28;20224;-75
2023/12/21 14:04:01;;;;;;;0.90;0.90;;;11.00;41.70;;;;;;10429957;28;20226;-75
2023/12/21 14:09:06;;;;;;;1.40;0.90;;;10.90;42.00;;;;;;10428622;28;20718;-75
2023/12/21 14:14:09;;;;;;;0.93;0.93;;;10.80;42.50;;;;;;10427928;28;20233;-75
2023/12/21 14:19:12;;;;;;;0.80;0.80;;;10.70;42.50;;;;;;10432458;28;20229;-75
2023/12/21 14:24:17;;;;;;;1.20;1.07;;;10.70;42.50;;;;;;10428146;28;20288;-74
2023/12/21 14:29:20;;;;;;;0.87;0.80;;;10.60;43.20;;;;;;10427757;28;20233;-75
2023/12/21 14:34:25;;;;;;;1.00;0.80;;;10.60;43.00;;;;;;10428314;28;20695;-73
2023/12/21 14:39:30;;;;;;;1.17;0.70;;;10.50;43.30;;;;;;10421344;28;21194;-74
2023/12/21 14:44:33;;;;;;;1.00;1.00;;;10.50;44.00;;;;;;10433297;28;20619;-74
2023/12/21 14:49:37;;;;;;;0.60;0.60;;;10.50;43.60;;;;;;10425350;28;20237;-74
2023/12/21 14:54:42;;;;;;;0.60;0.60;;;10.50;43.80;;;;;;10431836;28;20646;-74
2023/12/21 14:59:45;;;;;;;0.60;0.60;;;10.50;44.10;;;;;;10431500;28;20230;-74
2023/12/21 15:04:48;;;;;;;0.50;0.50;;;10.50;43.90;;;;;;10424497;28;20235;-74
2023/12/21 15:09:54;;;;;;;1.00;0.90;;;10.50;44.20;;;;;;10426797;28;20259;-74
2023/12/21 15:14:57;;;;;;;0.70;0.70;;;10.40;44.40;;;;;;10427292;28;20276;-74
2023/12/21 15:20:00;;;;;;;1.00;1.00;;;10.50;44.00;;;;;;10425250;28;20233;-74
2023/12/21 15:25:06;;;;;;;0.77;0.77;;;10.50;44.20;;;;;;10425199;28;20256;-74
2023/12/21 15:30:10;;;;;;;1.70;1.60;;;10.60;44.50;;;;;;10421719;28;20237;-74
2023/12/21 15:35:16;;;;;;;1.10;1.10;;;10.60;44.20;;;;;;10424692;28;20249;-74
2023/12/21 15:40:20;;;;;;;1.00;1.00;;;10.60;44.30;;;;;;10423893;28;20316;-74
2023/12/21 15:45:25;;;;;;;1.33;1.00;;;10.60;44.50;;;;;;10424850;28;20271;-73
2023/12/21 15:50:28;;;;;;;0.80;0.80;;;10.60;44.40;;;;;;10426778;28;20239;-75
2023/12/21 15:55:34;;;;;;;0.60;0.60;;;10.70;44.50;;;;;;10424172;28;20236;-75
2023/12/21 16:00:37;;;;;;;1.40;1.30;;;10.70;44.20;;;;;;10423459;28;20599;-74
2023/12/21 16:05:40;;;;;;;0.70;0.70;;;10.80;44.30;;;;;;10418051;28;20663;-74
2023/12/21 16:10:45;;;;;;;0.70;0.70;;;10.80;44.40;;;;;;10419535;28;20288;-73
2023/12/21 16:15:48;;;;;;;0.70;0.70;;;10.80;44.80;;;;;;10424630;28;20248;-74
2023/12/21 16:20:51;;;;;;;0.60;0.60;;;10.80;44.60;;;;;;10424238;28;20864;-73
2023/12/21 16:25:59;;;;;;;0.70;0.70;;;10.90;44.80;;;;;;10425930;28;20312;-74
2023/12/21 16:31:03;;;;;;;0.50;0.50;;;10.90;45.30;;;;;;10421789;28;20307;-73
2023/12/21 16:36:07;;;;;;;0.70;0.70;;;10.90;44.70;;;;;;10422475;28;20243;-74
2023/12/21 16:41:12;;;;;;;1.77;1.67;;;11.00;44.80;;;;;;10421859;28;20770;-75
2023/12/21 16:46:15;;;;;;;0.80;0.80;;;11.00;44.70;;;;;;10420518;28;20699;-75
2023/12/21 16:51:19;;;;;;;1.50;0.90;;;11.00;44.70;;;;;;10411832;28;20226;-73
2023/12/21 16:56:24;;;;;;;0.80;0.80;;;11.10;44.80;;;;;;10418540;28;20634;-74
2023/12/21 17:01:28;;;;;;;0.80;0.80;;;11.10;44.90;;;;;;10413817;28;20229;-74
2023/12/21 17:06:32;;;;;;;0.90;0.70;;;11.20;45.00;;;;;;10411930;28;20244;-72
2023/12/21 17:11:36;;;;;;;1.10;1.10;;;11.20;44.70;;;;;;10434830;28;20254;-74
2023/12/21 17:16:40;;;;;;;0.90;0.90;;;11.20;44.80;;;;;;10423506;28;20247;-75
2023/12/21 17:21:47;;;;;;;0.80;0.80;;;11.20;44.60;;;;;;10434314;28;20310;-74
2023/12/21 17:26:52;;;;;;;0.70;0.70;;;11.30;44.90;;;;;;10434464;28;20233;-75
2023/12/21 17:31:55;;;;;;;0.90;0.90;;;11.30;45.10;;;;;;10437151;28;20478;-75
2023/12/21 17:36:58;;;;;;;0.80;0.80;;;11.30;44.70;;;;;;10435373;28;20225;-75
2023/12/21 17:42:03;;;;;;;1.53;0.80;;;11.40;44.70;;;;;;10431919;28;20225;-74
2023/12/21 17:47:06;;;;;;;0.73;0.73;;;11.40;44.90;;;;;;10429274;28;20229;-74
2023/12/21 17:52:09;;;;;;;0.70;0.70;;;11.40;44.70;;;;;;10434679;28;20308;-74
2023/12/21 17:57:16;;;;;;;0.60;0.60;;;11.50;44.80;;;;;;10429191;28;20236;-74
2023/12/21 18:02:20;;;;;;;0.60;0.60;;;11.50;45.00;;;;;;10435890;28;20232;-74
2023/12/21 18:07:23;;;;;;;0.70;0.70;;;11.50;44.80;;;;;;10427963;28;20810;-75
2023/12/21 18:12:29;;;;;;;1.47;1.00;;;11.60;44.90;;;;;;10428519;28;20634;-74
2023/12/21 18:17:32;;;;;;;1.53;0.90;;;11.60;45.10;;;;;;10432227;28;20268;-75
2023/12/21 18:22:36;;;;;;;0.83;0.83;;;11.60;45.00;;;;;;10430970;28;20237;-75
2023/12/21 18:27:40;;;;;;;0.70;0.70;;;11.60;45.20;;;;;;10430669;28;20280;-74
2023/12/21 18:32:43;;;;;;;0.70;0.60;;;11.60;45.30;;;;;;10425597;28;20232;-74
2023/12/21 18:37:47;;;;;;;1.37;0.60;;;11.60;45.30;;;;;;10420490;28;20820;-75
2023/12/21 18:42:52;;;;;;;0.60;0.60;;;11.70;45.50;;;;;;10421538;28;20231;-75
2023/12/21 18:47:55;;;;;;;0.70;0.70;;;11.70;45.30;;;;;;10420800;28;20762;-75
2023/12/21 18:52:59;;;;;;;0.50;0.50;;;11.80;45.20;;;;;;10421586;28;20247;-74
2023/12/21 18:58:06;;;;;;;0.80;0.70;;;11.80;45.00;;;;;;10420782;28;20226;-75
2023/12/21 19:03:11;;;;;;;1.53;0.90;;;11.90;45.20;;;;;;10427615;28;20236;-75
2023/12/21 19:08:15;;;;;;;0.73;0.73;;;11.90;45.00;;;;;;10425761;28;20237;-75
2023/12/21 19:13:19;;;;;;;1.00;1.00;;;12.00;45.00;;;;;;10421116;28;20629;-75
2023/12/21 19:18:23;;;;;;;0.80;0.80;;;12.00;44.90;;;;;;10436227;28;20233;-74
2023/12/21 19:23:26;;;;;;;1.03;0.93;;;12.00;44.70;;;;;;10429800;28;20314;-74
2023/12/21 19:28:31;;;;;;;0.80;0.80;;;12.00;44.60;;;;;;10428867;28;20244;-74
2023/12/21 19:33:35;;;;;;;0.80;0.80;;;12.00;44.60;;;;;;10434048;28;20325;-74
2023/12/21 19:38:39;;;;;;;0.90;0.90;;;12.00;44.40;;;;;;10427715;28;20228;-74
2023/12/21 19:43:43;;;;;;;0.90;0.90;;;12.10;44.40;;;;;;10424408;28;20311;-74
2023/12/21 19:48:46;;;;;;;0.73;0.73;;;12.10;44.80;;;;;;10426655;28;20231;-74
2023/12/21 19:53:50;;;;;;;0.70;0.70;;;12.10;44.70;;;;;;10426029;28;20239;-75
2023/12/21 19:58:55;;;;;;;0.60;0.60;;;12.10;44.70;;;;;;10426790;28;20230;-74
2023/12/21 20:03:58;;;;;;;0.90;0.80;;;12.00;45.00;;;;;;10431890;28;20233;-75
2023/12/21 20:09:03;;;;;;;0.70;0.70;;;11.90;44.80;;;;;;10426005;28;20550;-75
2023/12/21 20:14:08;;;;;;;0.70;0.70;;;11.90;44.90;;;;;;10429357;28;20247;-75
2023/12/21 20:19:11;;;;;;;1.37;0.80;;;11.90;45.10;;;;;;10423255;28;20251;-74
2023/12/21 20:24:14;;;;;;;2.73;1.00;;;11.90;45.40;;;;;;10426314;28;20225;-78
2023/12/21 20:29:19;;;;;;;3.73;1.00;;;11.70;41.40;;;;;;10427546;28;20251;-76
2023/12/21 20:34:23;;;;;;;1.40;0.80;;;11.20;41.00;;;;;;10422066;28;20758;-75
2023/12/21 20:39:26;;;;;;;2.70;0.80;;;10.60;41.30;;;;;;10421334;28;20236;-75
2023/12/21 20:44:30;;;;;;;1.73;0.83;;;10.20;42.30;;;;;;10414578;28;20699;-74
2023/12/21 20:49:34;;;;;;;3.07;1.07;;;10.10;43.40;;;;;;10415898;28;20237;-74
2023/12/21 20:54:39;;;;;;;1.20;0.70;;;10.00;43.90;;;;;;10430675;28;20314;-75
2023/12/21 20:59:44;;;;;;;1.87;0.80;;;10.00;44.20;;;;;;10425407;28;20236;-75
2023/12/21 21:04:48;;;;;;;1.60;0.90;;;10.00;44.50;;;;;;10410676;28;20249;-74
2023/12/21 21:09:51;;;;;;;1.97;0.97;;;10.10;44.70;;;;;;10416696;28;20240;-73
2023/12/21 21:14:56;;;;;;;1.80;1.00;;;10.20;45.10;;;;;;10412624;28;20633;-73
2023/12/21 21:19:59;;;;;;;1.00;0.83;;;10.30;45.30;;;;;;10408152;28;20226;-73
2023/12/21 21:25:03;;;;;;;1.67;1.13;;;10.40;45.20;;;;;;10416044;28;20232;-73
2023/12/21 21:30:09;;;;;;;1.17;0.93;;;10.50;45.00;;;;;;10416765;28;21976;-73
2023/12/21 21:35:12;;;;;;;3.47;1.00;;;10.60;44.90;;;;;;10421859;28;20259;-73
2023/12/21 21:40:16;;;;;;;1.77;0.90;;;10.70;44.60;;;;;;10380451;28;20229;-73
2023/12/21 21:45:20;;;;;;;2.60;1.30;;;10.90;44.30;;;;;;10415346;28;20765;-73
2023/12/21 21:50:24;;;;;;;3.60;1.13;;;10.90;43.80;;;;;;10420037;28;20355;-73
2023/12/21 21:55:27;;;;;;;1.50;0.93;;;11.00;43.90;;;;;;10417243;28;20239;-73
2023/12/21 22:00:31;;;;;;;1.77;1.00;;;11.10;43.00;;;;;;10421484;28;20230;-73
2023/12/21 22:05:35;;;;;;;1.17;0.97;;;11.10;42.40;;;;;;10418726;28;20240;-73
2023/12/21 22:10:38;;;;;;;1.37;0.87;;;11.20;42.40;;;;;;10429444;28;21008;-73
2023/12/21 22:15:43;;;;;;;1.50;0.90;;;11.20;42.50;;;;;;10424423;28;20229;-73
2023/12/21 22:20:46;;;;;;;1.10;0.83;;;11.30;42.60;;;;;;10418881;28;20229;-73
2023/12/21 22:25:49;;;;;;;1.53;1.27;;;11.30;42.60;;;;;;10420446;28;21037;-73
2023/12/21 22:30:54;;;;;;;1.90;1.00;;;11.30;42.60;;;;;;10422687;28;20221;-73
2023/12/21 22:35:57;;;;;;;1.97;1.20;;;11.30;42.60;;;;;;10422115;28;20332;-73
2023/12/21 22:41:00;;;;;;;1.13;0.90;;;11.30;42.50;;;;;;10421299;28;20225;-74
2023/12/21 22:46:05;;;;;;;1.03;0.73;;;11.20;39.20;;;;;;10420155;28;20271;-74
2023/12/21 22:51:08;;;;;;;0.80;0.67;;;10.60;37.50;;;;;;10422359;28;20237;-74
2023/12/21 22:56:11;;;;;;;2.10;0.77;;;9.70;37.90;;;;;;10424674;28;20703;-73
2023/12/21 23:01:16;;;;;;;0.50;0.50;;;9.00;39.90;;;;;;10424481;28;20231;-73
2023/12/21 23:06:21;;;;;;;2.17;0.70;;;8.50;39.70;;;;;;10420655;28;20882;-73
2023/12/21 23:11:24;;;;;;;1.33;0.60;;;8.30;41.00;;;;;;10420237;28;20284;-73
2023/12/21 23:16:29;;;;;;;0.63;0.60;;;8.20;41.40;;;;;;10417798;28;20638;-73
2023/12/21 23:21:32;;;;;;;0.60;0.60;;;8.20;41.40;;;;;;10422726;28;20723;-74
2023/12/21 23:26:37;;;;;;;0.57;0.50;;;8.20;41.70;;;;;;10419746;28;20232;-74
2023/12/21 23:31:42;;;;;;;0.50;0.50;;;8.20;41.70;;;;;;10419709;28;20247;-74
2023/12/21 23:36:45;;;;;;;1.00;0.60;;;8.20;41.60;;;;;;10419217;28;21136;-74
2023/12/21 23:41:48;;;;;;;1.07;0.70;;;8.20;41.30;;;;;;10423060;28;20232;-73
2023/12/21 23:46:52;;;;;;;1.23;0.80;;;8.10;41.00;;;;;;10420820;28;20316;-74
2023/12/21 23:51:56;;;;;;;2.67;0.90;;;8.10;41.80;;;;;;10429897;28;20229;-74
2023/12/21 23:56:59;;;;;;;2.90;1.00;;;8.00;41.90;;;;;;10421348;28;20233;-74
